Terminal Aerodrome Forecast
Issued by NWS Cleveland, OH

Home | Current Version | Previous Version | Graphics & Text | Print | Product List | Glossary Off
Versions: 1 2 3 4 5 6 7 8 9 10 11 12 13 14 15 16

536
FTUS41 KCLE 211720
TAFYNG
TAF
KYNG 211720Z 2118/2218 33011KT 5SM -SHRA BR OVC006
     FM212100 35011KT 6SM BR VCSH OVC010
     FM220100 36009KT P6SM SCT030 OVC040
     FM220400 01007KT P6SM -RA OVC050
     FM220600 01007KT P6SM -FZRAPL OVC025=

USA.gov is the U.S. government's official web portal to all federal, state and local government web resources and services.